Terminal Aerodrome Forecast
Issued by NWS

Home | Current Version | Previous Version | Text Only | Print | Product List | Glossary Off
Versions: 1 2 3 4 5 6 7 8 9 10 11 12 13 14 15 16 17 18 19 20 21 22 23 24 25 26 27 28 29 30 31 32 33 34 35

000
FTUS43 KLOT 300100 AAA
TAFORD
TAF AMD
KORD 300102Z 3001/3106 16011KT P6SM SCT040 SCT250
     FM300150 16010KT P6SM -SHRA VCTS OVC040CB
     FM300220 17010KT P6SM SCT040 SCT250
     FM300500 20009KT P6SM SCT040 BKN250
      TEMPO 3005/3007 5SM -SHRA OVC040
     FM301600 22012G20KT P6SM BKN035 PROB30 3016/3019 5SM -TSRA
      BKN030CB
     FM310100 23006KT P6SM BKN300=

USA.gov is the U.S. government's official web portal to all federal, state and local government web resources and services.